KBTV/BTV METAR and TAF weather

Enter ICAO airport designator
Station Type Date Time Source
KBTV METAR 2019/04/18 19:54 UTC NOAA

KBTV 181954Z 18020G34KT 10SM SCT037 BKN090 OVC250 14/02 A2985 RMK AO2 PK WND 17037/1916 SLP110 T01390017


Station Type Date Time Source
KBTV Decoded METAR 2019/04/18 19:54 UTC NOAA

BURLINGTON INTERNATIONAL, VT, United States (KBTV) 44-28N 73-09W 105M
Apr 18, 2019 - 03:54 PM EDT / 2019.04.18 1954 UTC
Wind: from the S (180 degrees) at 23 MPH (20 KT) gusting to 39 MPH (34 KT):0
Visibility: 10 mile(s):0
Sky conditions: overcast
Temperature: 57.0 F (13.9 C)
Dew Point: 35.1 F (1.7 C)
Relative Humidity: 43%
Pressure (altimeter): 29.85 in. Hg (1010 hPa)
ob: KBTV 181954Z 18020G34KT 10SM SCT037 BKN090 OVC250 14/02 A2985 RMK AO2 PK WND 17037/1916 SLP110 T01390017
cycle: 20

Station Type Date Time Source
KBTV TAF 2019/04/18 18:24 UTC NOAA

TAF KBTV 181721Z 1818/1918 17020G34KT P6SM SCT050
FM182300 17015G26KT P6SM VCSH BKN035
FM190600 18014G22KT P6SM BKN045
FM191200 19013G21KT P6SM VCSH BKN035

Example: see airport list